createdAt,value
2022-12-08T00:00:18.862Z,96977.94
2022-12-08T00:04:21.500Z,96982.75
2022-12-08T00:08:41.645Z,96971.41
2022-12-08T00:12:44.294Z,96971.19
2022-12-08T00:16:48.391Z,96960.53
2022-12-08T00:20:56.140Z,96955.84
2022-12-08T00:24:58.768Z,96955.47
2022-12-08T00:29:01.397Z,96952.75
2022-12-08T00:33:05.386Z,96945.44
2022-12-08T00:37:08.089Z,96944.56
2022-12-08T00:41:14.846Z,96947.22
2022-12-08T00:45:17.629Z,96949.00
2022-12-08T00:49:21.773Z,96943.22
2022-12-08T00:53:24.454Z,96946.47
2022-12-08T00:57:27.101Z,96957.25
2022-12-08T01:01:29.820Z,96941.56
2022-12-08T01:05:33.867Z,96942.72
2022-12-08T01:09:36.591Z,96951.34
2022-12-08T01:13:39.558Z,96942.19
2022-12-08T01:17:42.215Z,96948.31
2022-12-08T01:21:47.205Z,96942.47
2022-12-08T01:25:49.912Z,96946.81
2022-12-08T01:29:52.617Z,96951.28
2022-12-08T01:33:55.302Z,96947.72
2022-12-08T01:37:59.325Z,96937.72
2022-12-08T01:42:01.980Z,96949.50
2022-12-08T01:46:04.883Z,96940.00
2022-12-08T01:50:11.368Z,96938.72
2022-12-08T01:54:16.349Z,96925.91
2022-12-08T01:58:23.658Z,96927.75
2022-12-08T02:02:30.689Z,96927.56
2022-12-08T02:06:38.571Z,96925.91
2022-12-08T02:10:44.263Z,96912.66
2022-12-08T02:14:47.047Z,96915.97
2022-12-08T02:19:29.800Z,96913.47
2022-12-08T02:23:32.382Z,96904.03
2022-12-08T02:27:44.225Z,96901.03
2022-12-08T02:31:59.685Z,96899.91
2022-12-08T02:36:08.052Z,96892.59
2022-12-08T02:40:18.557Z,96904.84
2022-12-08T02:44:28.977Z,96894.19
2022-12-08T02:48:31.898Z,96893.97
2022-12-08T02:52:43.817Z,96886.97
2022-12-08T02:57:08.665Z,96884.13
2022-12-08T03:01:35.229Z,96878.66
2022-12-08T03:05:56.701Z,96876.53
2022-12-08T03:10:09.916Z,96873.09
2022-12-08T03:14:17.232Z,96870.47
2022-12-08T03:18:24.569Z,96865.47
2022-12-08T03:22:30.035Z,96875.22
2022-12-08T03:26:39.642Z,96861.75
2022-12-08T03:30:47.076Z,96861.47
2022-12-08T03:34:51.534Z,96858.81
2022-12-08T03:38:55.626Z,96860.00
2022-12-08T03:42:59.674Z,96850.53
2022-12-08T03:47:02.491Z,96843.94
2022-12-08T03:51:05.351Z,96836.66
2022-12-08T03:55:08.823Z,96843.31
2022-12-08T03:59:13.290Z,96845.00
2022-12-08T04:03:16.021Z,96845.53
2022-12-08T04:07:18.755Z,96843.03
2022-12-08T04:11:22.147Z,96828.25
2022-12-08T04:15:26.178Z,96823.56
2022-12-08T04:19:28.998Z,96832.34
2022-12-08T04:23:31.638Z,96835.97
2022-12-08T04:27:34.398Z,96824.34
2022-12-08T04:31:38.837Z,96832.06
2022-12-08T04:35:41.536Z,96834.97
2022-12-08T04:39:44.235Z,96839.56
2022-12-08T04:43:46.895Z,96845.19
2022-12-08T04:47:50.987Z,96835.72
2022-12-08T04:51:53.685Z,96837.41
2022-12-08T04:55:56.540Z,96826.00
2022-12-08T04:59:59.207Z,96823.72
2022-12-08T05:04:03.277Z,96835.63
2022-12-08T05:08:06.639Z,96829.16
2022-12-08T05:12:09.487Z,96827.31
2022-12-08T05:16:14.289Z,96826.50
2022-12-08T05:20:18.449Z,96831.78
2022-12-08T05:24:21.124Z,96832.66
2022-12-08T05:32:46.616Z,96827.41
2022-12-08T05:36:50.620Z,96828.63
2022-12-08T05:40:53.284Z,96828.00
2022-12-08T05:44:56.023Z,96819.13
2022-12-08T05:49:00.288Z,96820.38
2022-12-08T05:53:04.310Z,96816.34
2022-12-08T05:57:07.076Z,96817.19
2022-12-08T06:01:19.872Z,96817.94
2022-12-08T06:05:22.540Z,96819.84
2022-12-08T06:09:26.723Z,96819.41
2022-12-08T06:13:29.407Z,96816.00
2022-12-08T06:17:32.092Z,96816.34
2022-12-08T06:21:34.839Z,96812.16
2022-12-08T06:25:38.851Z,96816.69
2022-12-08T06:29:41.708Z,96817.16
2022-12-08T06:33:44.645Z,96804.72
2022-12-08T06:37:47.287Z,96815.63
2022-12-08T06:42:08.598Z,96813.16
2022-12-08T06:46:13.718Z,96821.78
2022-12-08T06:50:16.695Z,96822.28
2022-12-08T06:54:19.412Z,96827.25
2022-12-08T06:58:23.434Z,96836.31
2022-12-08T07:02:26.199Z,96832.16
2022-12-08T07:06:28.890Z,96834.97
2022-12-08T07:10:31.741Z,96839.03
2022-12-08T07:14:35.715Z,96838.84
2022-12-08T07:18:39.293Z,96830.22
2022-12-08T07:22:42.687Z,96835.91
2022-12-08T07:26:45.364Z,96826.25
2022-12-08T07:30:49.459Z,96824.09
2022-12-08T07:34:52.187Z,96822.88
2022-12-08T07:38:55.295Z,96827.94
2022-12-08T07:42:58.682Z,96824.59
2022-12-08T07:47:02.716Z,96823.91
2022-12-08T07:51:06.815Z,96821.44
2022-12-08T07:55:10.649Z,96824.59
2022-12-08T07:59:14.348Z,96832.72
2022-12-08T08:03:18.654Z,96838.63
2022-12-08T08:07:21.493Z,96836.25
2022-12-08T08:11:24.821Z,96843.13
2022-12-08T08:15:27.801Z,96840.13
2022-12-08T08:19:32.492Z,96843.06
2022-12-08T08:23:35.272Z,96828.59
2022-12-08T08:27:37.949Z,96839.19
2022-12-08T08:31:40.681Z,96834.66
2022-12-08T08:35:44.736Z,96832.09
2022-12-08T08:39:47.481Z,96836.34
2022-12-08T08:43:50.182Z,96832.66
2022-12-08T08:47:52.872Z,96842.31
2022-12-08T08:51:56.943Z,96832.38
2022-12-08T08:56:02.645Z,96828.44
2022-12-08T09:00:07.629Z,96828.16
2022-12-08T09:04:11.257Z,96831.34
2022-12-08T09:08:15.362Z,96835.03
2022-12-08T09:12:18.289Z,96829.19
2022-12-08T09:16:21.671Z,96832.16
2022-12-08T09:20:24.429Z,96833.66
2022-12-08T09:24:28.556Z,96832.78
2022-12-08T09:28:31.283Z,96820.59
2022-12-08T09:32:33.982Z,96828.09
2022-12-08T09:36:36.895Z,96815.50
2022-12-08T09:40:47.524Z,96823.53
2022-12-08T09:44:59.858Z,96812.59
2022-12-08T09:49:04.212Z,96810.41
2022-12-08T09:53:13.315Z,96805.16
2022-12-08T09:57:21.865Z,96798.91
2022-12-08T10:01:29.612Z,96793.91
2022-12-08T10:05:38.658Z,96791.75
2022-12-08T10:09:46.578Z,96797.38
2022-12-08T10:13:59.940Z,96785.84
2022-12-08T10:18:05.267Z,96786.09
2022-12-08T10:22:19.591Z,96779.59
2022-12-08T10:26:23.438Z,96769.09
2022-12-08T10:30:27.969Z,96765.91
2022-12-08T10:34:30.591Z,96762.28
2022-12-08T10:38:35.305Z,96753.84
2022-12-08T10:42:44.108Z,96759.31
2022-12-08T10:46:48.237Z,96753.34
2022-12-08T10:50:55.458Z,96746.59
2022-12-08T10:55:01.622Z,96742.19
2022-12-08T10:59:14.845Z,96732.06
2022-12-08T11:03:25.992Z,96740.66
2022-12-08T11:07:29.161Z,96732.34
2022-12-08T11:11:40.163Z,96723.03
2022-12-08T11:15:45.510Z,96713.13
2022-12-08T11:19:59.485Z,96717.78
2022-12-08T11:24:19.213Z,96701.50
2022-12-08T11:28:25.373Z,96708.47
2022-12-08T11:32:28.077Z,96706.16
2022-12-08T11:36:36.337Z,96698.25
2022-12-08T11:40:41.607Z,96689.78
2022-12-08T11:44:52.297Z,96690.78
2022-12-08T11:49:05.953Z,96686.78
2022-12-08T11:53:17.941Z,96694.59
2022-12-08T11:57:24.157Z,96678.50
2022-12-08T12:01:27.737Z,96682.97
2022-12-08T12:06:08.671Z,96689.00
2022-12-08T12:10:26.840Z,96682.50
2022-12-08T12:14:47.977Z,96682.50
2022-12-08T12:18:53.915Z,96667.38
2022-12-08T12:23:02.441Z,96669.88
2022-12-08T12:27:16.660Z,96664.25
2022-12-08T12:31:22.857Z,96668.22
2022-12-08T12:35:34.449Z,96664.06
2022-12-08T12:39:49.963Z,96656.91
2022-12-08T12:44:24.065Z,96648.13
2022-12-08T12:48:28.362Z,96652.47
2022-12-08T12:52:38.898Z,96645.81
2022-12-08T12:56:50.208Z,96642.13
2022-12-08T13:01:32.785Z,96645.63
2022-12-08T16:39:42.372Z,96590.47
2022-12-08T16:43:49.122Z,96601.81
2022-12-08T16:47:53.116Z,96597.34
2022-12-08T16:51:55.812Z,96605.13
2022-12-08T16:55:59.845Z,96596.00
2022-12-08T17:00:03.681Z,96598.00
2022-12-08T17:04:30.478Z,96598.50
2022-12-08T17:08:29.378Z,96591.19
2022-12-08T17:12:35.636Z,96589.53
2022-12-08T17:16:38.509Z,96581.56
2022-12-08T17:20:41.235Z,96582.06
2022-12-08T17:24:43.922Z,96585.88
2022-12-08T17:29:03.247Z,96576.50
2022-12-08T17:33:06.013Z,96572.56
2022-12-08T17:37:08.941Z,96561.22
2022-12-08T17:41:12.767Z,96569.84
2022-12-08T17:45:16.893Z,96574.91
2022-12-08T17:49:22.190Z,96588.50
2022-12-08T17:53:24.931Z,96597.00
2022-12-08T17:57:27.667Z,96580.91
2022-12-08T18:01:34.385Z,96584.88
2022-12-08T18:05:37.168Z,96581.06
2022-12-08T18:09:39.922Z,96578.41
2022-12-08T18:13:42.809Z,96573.94
2022-12-08T18:17:46.990Z,96564.97
2022-12-08T18:21:49.696Z,96572.44
2022-12-08T18:25:52.420Z,96566.63
2022-12-08T18:29:55.180Z,96568.63
2022-12-08T18:33:59.195Z,96564.31
2022-12-08T18:38:02.021Z,96570.28
2022-12-08T18:42:22.952Z,96560.66
2022-12-08T18:46:26.562Z,96559.81
2022-12-08T18:50:30.615Z,96563.31
2022-12-08T18:55:04.680Z,96557.47
2022-12-08T18:59:01.476Z,96557.97
2022-12-08T19:03:06.224Z,96561.94
2022-12-08T19:07:10.642Z,96557.50
2022-12-08T19:11:19.104Z,96557.00
2022-12-08T19:15:21.937Z,96557.00
2022-12-08T19:19:24.633Z,96556.34
2022-12-08T19:23:29.131Z,96562.81
2022-12-08T19:27:34.105Z,96567.13
2022-12-08T19:31:36.925Z,96578.56
2022-12-08T19:35:39.658Z,96570.09
2022-12-08T19:40:01.351Z,96563.28
2022-12-08T19:44:21.531Z,96552.66
2022-12-08T19:48:24.243Z,96556.47
2022-12-08T19:52:26.927Z,96554.31
2022-12-08T19:56:30.961Z,96547.00
2022-12-08T20:00:35.288Z,96537.56
2022-12-08T20:04:37.974Z,96535.75
2022-12-08T20:08:41.548Z,96544.03
2022-12-08T20:12:47.849Z,96543.53
2022-12-08T20:16:50.855Z,96560.31
2022-12-08T20:20:53.714Z,96550.03
2022-12-08T20:24:59.584Z,96545.72
2022-12-08T20:29:05.042Z,96567.28
2022-12-08T20:33:07.972Z,96567.44
2022-12-08T20:37:10.672Z,96561.31
2022-12-08T20:41:15.898Z,96555.66
2022-12-08T20:45:20.403Z,96556.16
2022-12-08T20:49:23.116Z,96559.81
2022-12-08T20:53:25.957Z,96561.78
2022-12-08T20:57:28.734Z,96551.69
2022-12-08T21:01:33.291Z,96563.09
2022-12-08T21:05:38.871Z,96567.09
2022-12-08T21:09:41.863Z,96563.28
2022-12-08T21:13:45.152Z,96559.09
2022-12-08T21:17:49.544Z,96554.66
2022-12-08T21:21:52.528Z,96563.44
2022-12-08T21:25:55.589Z,96562.91
2022-12-08T21:29:58.323Z,96556.78
2022-12-08T21:34:03.175Z,96549.13
2022-12-08T21:38:07.149Z,96552.66
2022-12-08T21:42:33.747Z,96552.97
2022-12-08T21:46:37.186Z,96542.00
2022-12-08T21:50:41.408Z,96545.81
2022-12-08T21:54:44.372Z,96549.50
2022-12-08T21:58:47.067Z,96551.63
2022-12-08T22:02:50.027Z,96534.22
2022-12-08T22:06:54.495Z,96528.25
2022-12-08T22:10:57.320Z,96524.28
2022-12-08T22:15:00.324Z,96530.91
2022-12-08T22:19:03.067Z,96534.88
2022-12-08T22:23:07.259Z,96519.75
2022-12-08T22:27:10.145Z,96524.75
2022-12-08T22:31:15.902Z,96526.88
2022-12-08T22:35:18.923Z,96522.38
2022-12-08T22:39:23.151Z,96525.22
2022-12-08T22:43:26.036Z,96517.25
2022-12-08T22:47:28.964Z,96517.72
2022-12-08T22:51:32.072Z,96515.91
2022-12-08T22:55:36.305Z,96518.38
2022-12-08T22:59:41.001Z,96516.56
2022-12-08T23:03:43.840Z,96515.09
2022-12-08T23:07:47.104Z,96512.78
2022-12-08T23:11:51.404Z,96521.22
2022-12-08T23:15:54.084Z,96517.75
2022-12-08T23:19:56.745Z,96513.63
2022-12-08T23:24:01.996Z,96501.47
2022-12-08T23:28:06.289Z,96494.31
2022-12-08T23:32:09.084Z,96489.66
2022-12-08T23:36:12.873Z,96496.81
2022-12-08T23:40:15.717Z,96489.84
2022-12-08T23:44:19.789Z,96488.16
2022-12-08T23:48:22.479Z,96473.19
2022-12-08T23:52:25.750Z,96476.50
2022-12-08T23:56:30.392Z,96473.53
